sensor_id;sensor_type;location;lat;lon;timestamp;pressure;altitude;pressure_sealevel;temperature;humidity
4392;BME280;2210;51.938;8.488;2023-07-16T00:03:26;99824.03;;;21.44;85.42
4392;BME280;2210;51.938;8.488;2023-07-16T00:07:27;99833.91;;;21.33;85.41
4392;BME280;2210;51.938;8.488;2023-07-16T00:11:33;99857.66;;;21.35;85.68
4392;BME280;2210;51.938;8.488;2023-07-16T00:15:33;99855.69;;;21.36;85.52
4392;BME280;2210;51.938;8.488;2023-07-16T00:19:37;99831.25;;;21.36;85.92
4392;BME280;2210;51.938;8.488;2023-07-16T00:23:37;99829.28;;;21.28;86.07
4392;BME280;2210;51.938;8.488;2023-07-16T00:27:37;99851.69;;;21.19;87.86
4392;BME280;2210;51.938;8.488;2023-07-16T00:31:38;99872.31;;;21.15;90.82
4392;BME280;2210;51.938;8.488;2023-07-16T00:35:38;99853.63;;;21.01;96.08
4392;BME280;2210;51.938;8.488;2023-07-16T00:39:38;99863.78;;;20.88;98.70
4392;BME280;2210;51.938;8.488;2023-07-16T00:43:45;99871.31;;;20.79;98.25
4392;BME280;2210;51.938;8.488;2023-07-16T00:47:48;99873.88;;;20.67;97.98
4392;BME280;2210;51.938;8.488;2023-07-16T00:51:49;99872.72;;;20.68;97.44
4392;BME280;2210;51.938;8.488;2023-07-16T00:55:51;99858.38;;;20.61;97.22
4392;BME280;2210;51.938;8.488;2023-07-16T00:59:51;99863.78;;;20.57;98.22
4392;BME280;2210;51.938;8.488;2023-07-16T01:03:52;99881.78;;;20.65;96.76
4392;BME280;2210;51.938;8.488;2023-07-16T01:08:04;99894.25;;;20.59;95.58
4392;BME280;2210;51.938;8.488;2023-07-16T01:12:07;99885.81;;;20.50;95.96
4392;BME280;2210;51.938;8.488;2023-07-16T01:16:19;99894.25;;;20.59;95.74
4392;BME280;2210;51.938;8.488;2023-07-16T01:20:20;99888.66;;;20.59;94.30
4392;BME280;2210;51.938;8.488;2023-07-16T01:29:10;99889.94;;;20.52;93.80
4392;BME280;2210;51.938;8.488;2023-07-16T01:33:21;99887.28;;;20.47;94.87
4392;BME280;2210;51.938;8.488;2023-07-16T01:37:22;99886.59;;;20.42;95.08
4392;BME280;2210;51.938;8.488;2023-07-16T01:41:23;99889.31;;;20.55;95.19
4392;BME280;2210;51.938;8.488;2023-07-16T01:45:25;99889.31;;;20.55;94.10
4392;BME280;2210;51.938;8.488;2023-07-16T01:49:25;99891.13;;;20.60;93.88
4392;BME280;2210;51.938;8.488;2023-07-16T01:53:25;99885.75;;;20.41;94.36
4392;BME280;2210;51.938;8.488;2023-07-16T01:57:25;99888.94;;;20.48;95.05
4392;BME280;2210;51.938;8.488;2023-07-16T02:01:26;99889.06;;;20.43;95.61
4392;BME280;2210;51.938;8.488;2023-07-16T02:05:26;99895.47;;;20.44;95.90
4392;BME280;2210;51.938;8.488;2023-07-16T02:09:26;99883.97;;;20.45;94.83
4392;BME280;2210;51.938;8.488;2023-07-16T02:13:29;99888.03;;;20.39;96.54
4392;BME280;2210;51.938;8.488;2023-07-16T02:17:29;99887.06;;;20.44;96.32
4392;BME280;2210;51.938;8.488;2023-07-16T02:21:30;99904.31;;;20.37;96.96
4392;BME280;2210;51.938;8.488;2023-07-16T02:25:32;99905.34;;;20.41;96.67
4392;BME280;2210;51.938;8.488;2023-07-16T02:29:32;99911.94;;;20.45;96.83
4392;BME280;2210;51.938;8.488;2023-07-16T02:33:41;99922.47;;;20.39;97.18
4392;BME280;2210;51.938;8.488;2023-07-16T02:37:45;99930.88;;;20.39;97.20
4392;BME280;2210;51.938;8.488;2023-07-16T02:41:45;99930.66;;;20.36;98.70
4392;BME280;2210;51.938;8.488;2023-07-16T02:45:45;99937.56;;;20.30;98.08
4392;BME280;2210;51.938;8.488;2023-07-16T02:49:45;99940.09;;;20.17;99.81
4392;BME280;2210;51.938;8.488;2023-07-16T02:53:46;99941.81;;;20.27;99.42
4392;BME280;2210;51.938;8.488;2023-07-16T02:57:46;99950.16;;;20.18;99.91
4392;BME280;2210;51.938;8.488;2023-07-16T03:01:46;99946.16;;;19.97;100.00
4392;BME280;2210;51.938;8.488;2023-07-16T03:05:46;99956.63;;;19.91;100.00
4392;BME280;2210;51.938;8.488;2023-07-16T03:09:47;99956.34;;;19.93;100.00
4392;BME280;2210;51.938;8.488;2023-07-16T03:13:47;99951.16;;;19.86;100.00
4392;BME280;2210;51.938;8.488;2023-07-16T03:17:47;99950.13;;;19.54;100.00
4392;BME280;2210;51.938;8.488;2023-07-16T03:21:47;99966.56;;;19.69;100.00
4392;BME280;2210;51.938;8.488;2023-07-16T03:25:52;99967.75;;;19.68;100.00
4392;BME280;2210;51.938;8.488;2023-07-16T03:29:55;99977.47;;;19.71;100.00
4392;BME280;2210;51.938;8.488;2023-07-16T03:33:56;99983.19;;;19.66;100.00
4392;BME280;2210;51.938;8.488;2023-07-16T03:37:56;99984.94;;;19.62;100.00
4392;BME280;2210;51.938;8.488;2023-07-16T03:41:56;99989.50;;;19.58;100.00
4392;BME280;2210;51.938;8.488;2023-07-16T03:45:57;99994.97;;;19.35;100.00
4392;BME280;2210;51.938;8.488;2023-07-16T03:49:57;99993.31;;;19.34;100.00
4392;BME280;2210;51.938;8.488;2023-07-16T03:53:57;99994.25;;;19.43;100.00
4392;BME280;2210;51.938;8.488;2023-07-16T03:57:58;100003.78;;;19.42;100.00
4392;BME280;2210;51.938;8.488;2023-07-16T04:02:04;100014.94;;;19.42;100.00
4392;BME280;2210;51.938;8.488;2023-07-16T04:06:06;100012.16;;;19.42;100.00
4392;BME280;2210;51.938;8.488;2023-07-16T04:10:07;100018.28;;;19.44;100.00
4392;BME280;2210;51.938;8.488;2023-07-16T04:14:07;100023.03;;;19.44;100.00
4392;BME280;2210;51.938;8.488;2023-07-16T04:18:07;100023.34;;;19.42;100.00
4392;BME280;2210;51.938;8.488;2023-07-16T04:22:08;100030.38;;;19.40;100.00
4392;BME280;2210;51.938;8.488;2023-07-16T04:26:08;100038.16;;;19.43;100.00
4392;BME280;2210;51.938;8.488;2023-07-16T04:30:08;100045.19;;;19.40;100.00
4392;BME280;2210;51.938;8.488;2023-07-16T04:34:09;100042.50;;;19.49;100.00
4392;BME280;2210;51.938;8.488;2023-07-16T04:38:09;100052.25;;;19.51;100.00
4392;BME280;2210;51.938;8.488;2023-07-16T04:42:09;100049.34;;;19.57;100.00
4392;BME280;2210;51.938;8.488;2023-07-16T04:46:10;100044.16;;;19.64;100.00
4392;BME280;2210;51.938;8.488;2023-07-16T04:50:11;100047.38;;;19.57;100.00
4392;BME280;2210;51.938;8.488;2023-07-16T04:54:12;100043.56;;;19.67;100.00
4392;BME280;2210;51.938;8.488;2023-07-16T04:58:12;100047.91;;;19.73;100.00
4392;BME280;2210;51.938;8.488;2023-07-16T05:02:15;100051.47;;;19.93;100.00
4392;BME280;2210;51.938;8.488;2023-07-16T05:06:20;100050.81;;;20.10;98.31
4392;BME280;2210;51.938;8.488;2023-07-16T05:10:29;100049.56;;;20.16;97.71
4392;BME280;2210;51.938;8.488;2023-07-16T05:14:30;100055.59;;;20.09;95.55
4392;BME280;2210;51.938;8.488;2023-07-16T05:18:30;100066.72;;;20.37;94.33
4392;BME280;2210;51.938;8.488;2023-07-16T05:22:30;100072.66;;;20.21;91.87
4392;BME280;2210;51.938;8.488;2023-07-16T05:26:30;100067.25;;;20.39;90.52
4392;BME280;2210;51.938;8.488;2023-07-16T05:30:37;100069.63;;;20.32;88.92
4392;BME280;2210;51.938;8.488;2023-07-16T05:34:37;100074.78;;;20.52;87.21
4392;BME280;2210;51.938;8.488;2023-07-16T05:38:37;100090.50;;;20.62;82.26
4392;BME280;2210;51.938;8.488;2023-07-16T05:42:38;100090.41;;;20.67;79.75
4392;BME280;2210;51.938;8.488;2023-07-16T05:46:38;100096.88;;;20.91;76.35
4392;BME280;2210;51.938;8.488;2023-07-16T05:50:39;100096.66;;;20.87;76.32
4392;BME280;2210;51.938;8.488;2023-07-16T05:54:43;100097.50;;;20.87;73.81
4392;BME280;2210;51.938;8.488;2023-07-16T05:58:44;100112.66;;;20.86;70.63
4392;BME280;2210;51.938;8.488;2023-07-16T06:02:45;100109.41;;;21.16;69.81
4392;BME280;2210;51.938;8.488;2023-07-16T06:06:45;100111.50;;;21.33;68.55
4392;BME280;2210;51.938;8.488;2023-07-16T06:10:45;100121.72;;;21.29;66.89
4392;BME280;2210;51.938;8.488;2023-07-16T06:14:46;100128.94;;;21.52;65.34
4392;BME280;2210;51.938;8.488;2023-07-16T06:18:46;100142.44;;;21.73;64.26
4392;BME280;2210;51.938;8.488;2023-07-16T06:22:46;100139.00;;;21.76;64.39
4392;BME280;2210;51.938;8.488;2023-07-16T06:26:46;100147.97;;;21.55;64.13
4392;BME280;2210;51.938;8.488;2023-07-16T06:30:47;100150.88;;;21.05;64.42
4392;BME280;2210;51.938;8.488;2023-07-16T06:34:48;100149.34;;;21.21;63.99
4392;BME280;2210;51.938;8.488;2023-07-16T06:38:48;100149.06;;;21.23;64.64
4392;BME280;2210;51.938;8.488;2023-07-16T06:42:54;100159.75;;;21.44;62.69
4392;BME280;2210;51.938;8.488;2023-07-16T06:46:57;100162.69;;;21.61;64.34
4392;BME280;2210;51.938;8.488;2023-07-16T06:50:58;100167.06;;;21.31;64.05
4392;BME280;2210;51.938;8.488;2023-07-16T06:54:58;100172.53;;;21.13;63.92
4392;BME280;2210;51.938;8.488;2023-07-16T06:58:58;100172.75;;;20.80;62.69
4392;BME280;2210;51.938;8.488;2023-07-16T07:02:59;100172.75;;;20.80;61.66
4392;BME280;2210;51.938;8.488;2023-07-16T07:06:59;100180.72;;;20.87;63.15
4392;BME280;2210;51.938;8.488;2023-07-16T07:10:59;100173.72;;;20.76;60.83
4392;BME280;2210;51.938;8.488;2023-07-16T07:14:59;100179.78;;;20.92;61.73
4392;BME280;2210;51.938;8.488;2023-07-16T07:19:00;100168.09;;;21.35;63.17
4392;BME280;2210;51.938;8.488;2023-07-16T07:23:00;100181.34;;;21.20;61.52
4392;BME280;2210;51.938;8.488;2023-07-16T07:27:03;100180.13;;;21.13;62.93
4392;BME280;2210;51.938;8.488;2023-07-16T07:31:03;100167.53;;;21.69;60.88
4392;BME280;2210;51.938;8.488;2023-07-16T07:35:09;100169.78;;;21.90;60.27
4392;BME280;2210;51.938;8.488;2023-07-16T07:39:10;100171.84;;;22.07;60.46
4392;BME280;2210;51.938;8.488;2023-07-16T07:43:10;100172.03;;;21.79;58.97
4392;BME280;2210;51.938;8.488;2023-07-16T07:47:11;100189.53;;;21.76;59.85
4392;BME280;2210;51.938;8.488;2023-07-16T07:51:14;100177.72;;;21.43;56.68
4392;BME280;2210;51.938;8.488;2023-07-16T07:55:15;100196.19;;;21.21;59.59
4392;BME280;2210;51.938;8.488;2023-07-16T07:59:15;100193.34;;;21.80;57.12
4392;BME280;2210;51.938;8.488;2023-07-16T08:03:15;100194.19;;;22.21;58.78
4392;BME280;2210;51.938;8.488;2023-07-16T08:07:22;100182.91;;;22.52;56.52
4392;BME280;2210;51.938;8.488;2023-07-16T08:11:22;100184.91;;;22.61;56.44
4392;BME280;2210;51.938;8.488;2023-07-16T08:15:26;100187.44;;;22.80;55.73
4392;BME280;2210;51.938;8.488;2023-07-16T08:19:26;100189.66;;;22.43;53.64
4392;BME280;2210;51.938;8.488;2023-07-16T08:23:26;100201.41;;;22.45;54.66
4392;BME280;2210;51.938;8.488;2023-07-16T08:27:27;100202.09;;;22.19;55.63
4392;BME280;2210;51.938;8.488;2023-07-16T08:31:27;100200.53;;;21.95;55.36
4392;BME280;2210;51.938;8.488;2023-07-16T08:35:28;100205.59;;;21.93;55.67
4392;BME280;2210;51.938;8.488;2023-07-16T08:39:28;100201.78;;;22.61;54.04
4392;BME280;2210;51.938;8.488;2023-07-16T08:43:29;100208.16;;;23.10;55.67
4392;BME280;2210;51.938;8.488;2023-07-16T08:47:30;100214.75;;;22.97;53.80
4392;BME280;2210;51.938;8.488;2023-07-16T08:51:31;100216.88;;;23.00;52.87
4392;BME280;2210;51.938;8.488;2023-07-16T08:55:35;100208.16;;;23.28;51.56
4392;BME280;2210;51.938;8.488;2023-07-16T08:59:40;100214.13;;;23.17;49.88
4392;BME280;2210;51.938;8.488;2023-07-16T09:03:44;100213.63;;;23.33;51.74
4392;BME280;2210;51.938;8.488;2023-07-16T09:07:44;100220.06;;;23.42;50.14
4392;BME280;2210;51.938;8.488;2023-07-16T09:11:48;100225.50;;;23.65;51.41
4392;BME280;2210;51.938;8.488;2023-07-16T09:15:51;100228.50;;;23.60;50.34
4392;BME280;2210;51.938;8.488;2023-07-16T09:19:51;100224.00;;;23.58;51.56
4392;BME280;2210;51.938;8.488;2023-07-16T09:23:58;100225.97;;;23.93;49.32
4392;BME280;2210;51.938;8.488;2023-07-16T09:28:02;100234.50;;;24.14;49.08
4392;BME280;2210;51.938;8.488;2023-07-16T09:32:03;100227.94;;;23.93;48.91
4392;BME280;2210;51.938;8.488;2023-07-16T09:36:05;100232.00;;;23.39;50.00
4392;BME280;2210;51.938;8.488;2023-07-16T09:40:07;100241.09;;;23.45;48.39
4392;BME280;2210;51.938;8.488;2023-07-16T09:44:10;100240.59;;;23.51;50.88
4392;BME280;2210;51.938;8.488;2023-07-16T09:48:17;100244.72;;;23.28;53.43
4392;BME280;2210;51.938;8.488;2023-07-16T09:52:26;100235.28;;;23.23;50.43
4392;BME280;2210;51.938;8.488;2023-07-16T09:56:39;100238.94;;;23.59;48.92
4392;BME280;2210;51.938;8.488;2023-07-16T10:00:41;100234.25;;;23.72;48.42
4392;BME280;2210;51.938;8.488;2023-07-16T10:04:41;100247.19;;;23.73;49.67
4392;BME280;2210;51.938;8.488;2023-07-16T10:08:49;100239.75;;;23.42;50.19
4392;BME280;2210;51.938;8.488;2023-07-16T10:12:57;100254.16;;;23.58;50.36
4392;BME280;2210;51.938;8.488;2023-07-16T10:17:01;100249.00;;;23.60;50.74
4392;BME280;2210;51.938;8.488;2023-07-16T10:21:03;100256.13;;;23.66;48.26
4392;BME280;2210;51.938;8.488;2023-07-16T10:29:08;100248.88;;;23.39;50.08
4392;BME280;2210;51.938;8.488;2023-07-16T10:33:11;100250.84;;;23.65;49.55
4392;BME280;2210;51.938;8.488;2023-07-16T10:37:12;100257.31;;;23.39;49.71
4392;BME280;2210;51.938;8.488;2023-07-16T10:41:13;100260.91;;;23.83;49.68
4392;BME280;2210;51.938;8.488;2023-07-16T10:45:13;100264.69;;;24.05;49.51
4392;BME280;2210;51.938;8.488;2023-07-16T10:49:13;100257.22;;;24.18;50.41
4392;BME280;2210;51.938;8.488;2023-07-16T10:53:14;100264.69;;;24.52;48.21
4392;BME280;2210;51.938;8.488;2023-07-16T10:57:14;100272.28;;;24.61;48.32
4392;BME280;2210;51.938;8.488;2023-07-16T11:01:16;100271.72;;;24.37;47.26
4392;BME280;2210;51.938;8.488;2023-07-16T11:05:17;100271.75;;;24.76;46.33
4392;BME280;2210;51.938;8.488;2023-07-16T11:09:18;100268.16;;;24.58;46.67
4392;BME280;2210;51.938;8.488;2023-07-16T11:13:19;100274.75;;;24.71;47.25
4392;BME280;2210;51.938;8.488;2023-07-16T11:17:20;100273.09;;;24.70;46.43
4392;BME280;2210;51.938;8.488;2023-07-16T11:21:21;100272.75;;;24.71;46.43
4392;BME280;2210;51.938;8.488;2023-07-16T11:25:23;100263.00;;;24.69;46.64
4392;BME280;2210;51.938;8.488;2023-07-16T11:29:24;100256.25;;;24.91;45.88
4392;BME280;2210;51.938;8.488;2023-07-16T11:33:34;100260.53;;;25.18;47.47
4392;BME280;2210;51.938;8.488;2023-07-16T11:37:36;100264.81;;;25.24;44.68
4392;BME280;2210;51.938;8.488;2023-07-16T11:41:36;100271.25;;;24.74;44.62
4392;BME280;2210;51.938;8.488;2023-07-16T11:45:37;100275.84;;;24.40;45.96
4392;BME280;2210;51.938;8.488;2023-07-16T11:49:38;100285.25;;;24.53;46.53
4392;BME280;2210;51.938;8.488;2023-07-16T11:53:38;100281.66;;;24.35;46.65
4392;BME280;2210;51.938;8.488;2023-07-16T11:57:38;100280.56;;;24.27;47.17
4392;BME280;2210;51.938;8.488;2023-07-16T12:01:39;100283.25;;;24.06;45.87
4392;BME280;2210;51.938;8.488;2023-07-16T12:05:39;100287.56;;;24.12;47.60
4392;BME280;2210;51.938;8.488;2023-07-16T12:09:40;100279.19;;;24.42;45.71
4392;BME280;2210;51.938;8.488;2023-07-16T12:13:40;100290.84;;;24.14;47.14
4392;BME280;2210;51.938;8.488;2023-07-16T12:17:40;100284.28;;;24.49;46.74
4392;BME280;2210;51.938;8.488;2023-07-16T12:21:40;100274.53;;;24.37;47.03
4392;BME280;2210;51.938;8.488;2023-07-16T12:25:41;100283.06;;;24.58;45.65
4392;BME280;2210;51.938;8.488;2023-07-16T12:29:43;100290.66;;;24.28;46.94
4392;BME280;2210;51.938;8.488;2023-07-16T12:33:43;100276.69;;;24.40;47.00
4392;BME280;2210;51.938;8.488;2023-07-16T12:37:44;100283.41;;;24.66;46.68
4392;BME280;2210;51.938;8.488;2023-07-16T12:41:44;100285.59;;;24.51;47.42
4392;BME280;2210;51.938;8.488;2023-07-16T12:45:44;100286.16;;;24.36;48.42
4392;BME280;2210;51.938;8.488;2023-07-16T12:49:44;100287.06;;;24.57;46.64
4392;BME280;2210;51.938;8.488;2023-07-16T12:53:45;100298.91;;;24.33;47.02
4392;BME280;2210;51.938;8.488;2023-07-16T12:57:45;100299.56;;;24.39;47.26
4392;BME280;2210;51.938;8.488;2023-07-16T13:01:46;100305.13;;;24.56;48.67
4392;BME280;2210;51.938;8.488;2023-07-16T13:05:46;100296.66;;;24.56;49.00
4392;BME280;2210;51.938;8.488;2023-07-16T13:09:47;100302.06;;;24.32;47.29
4392;BME280;2210;51.938;8.488;2023-07-16T13:13:47;100311.72;;;24.13;47.80
4392;BME280;2210;51.938;8.488;2023-07-16T13:17:47;100309.06;;;24.26;47.21
4392;BME280;2210;51.938;8.488;2023-07-16T13:21:48;100306.50;;;24.50;47.12
4392;BME280;2210;51.938;8.488;2023-07-16T13:25:48;100307.66;;;24.49;46.98
4392;BME280;2210;51.938;8.488;2023-07-16T13:29:51;100314.16;;;24.41;46.55
4392;BME280;2210;51.938;8.488;2023-07-16T13:33:51;100315.69;;;24.30;47.18
4392;BME280;2210;51.938;8.488;2023-07-16T13:37:52;100320.56;;;24.68;47.00
4392;BME280;2210;51.938;8.488;2023-07-16T13:41:52;100311.78;;;24.90;47.45
4392;BME280;2210;51.938;8.488;2023-07-16T13:45:52;100311.41;;;24.71;47.00
4392;BME280;2210;51.938;8.488;2023-07-16T13:49:52;100320.84;;;24.75;46.27
4392;BME280;2210;51.938;8.488;2023-07-16T13:53:53;100319.22;;;24.56;46.34
4392;BME280;2210;51.938;8.488;2023-07-16T13:57:53;100323.06;;;24.90;46.46
4392;BME280;2210;51.938;8.488;2023-07-16T14:02:02;100322.41;;;24.94;46.96
4392;BME280;2210;51.938;8.488;2023-07-16T14:06:03;100306.81;;;25.17;45.72
4392;BME280;2210;51.938;8.488;2023-07-16T14:10:04;100325.25;;;25.15;46.77
4392;BME280;2210;51.938;8.488;2023-07-16T14:14:04;100318.03;;;25.05;47.62
4392;BME280;2210;51.938;8.488;2023-07-16T14:18:05;100315.69;;;25.07;46.45
4392;BME280;2210;51.938;8.488;2023-07-16T14:22:05;100321.91;;;24.91;47.27
4392;BME280;2210;51.938;8.488;2023-07-16T14:26:05;100320.38;;;24.73;47.40
4392;BME280;2210;51.938;8.488;2023-07-16T14:30:06;100330.44;;;24.83;46.72
4392;BME280;2210;51.938;8.488;2023-07-16T14:34:07;100324.63;;;25.09;45.24
4392;BME280;2210;51.938;8.488;2023-07-16T14:38:07;100321.56;;;24.93;46.41
4392;BME280;2210;51.938;8.488;2023-07-16T14:42:08;100331.06;;;24.88;47.26
4392;BME280;2210;51.938;8.488;2023-07-16T14:46:09;100313.25;;;24.97;46.58
4392;BME280;2210;51.938;8.488;2023-07-16T14:50:18;100320.06;;;24.96;48.08
4392;BME280;2210;51.938;8.488;2023-07-16T14:54:18;100322.94;;;25.17;47.32
4392;BME280;2210;51.938;8.488;2023-07-16T14:58:19;100320.13;;;25.17;45.48
4392;BME280;2210;51.938;8.488;2023-07-16T15:02:21;100326.13;;;25.06;45.64
4392;BME280;2210;51.938;8.488;2023-07-16T15:06:21;100320.16;;;25.08;46.08
4392;BME280;2210;51.938;8.488;2023-07-16T15:10:22;100329.81;;;25.07;47.45
4392;BME280;2210;51.938;8.488;2023-07-16T15:14:22;100325.31;;;25.06;48.55
4392;BME280;2210;51.938;8.488;2023-07-16T15:18:23;100318.91;;;24.97;47.92
4392;BME280;2210;51.938;8.488;2023-07-16T15:22:25;100327.00;;;25.07;46.64
4392;BME280;2210;51.938;8.488;2023-07-16T15:26:25;100319.25;;;24.95;46.91
4392;BME280;2210;51.938;8.488;2023-07-16T15:30:27;100313.75;;;24.99;46.70
4392;BME280;2210;51.938;8.488;2023-07-16T15:34:27;100313.75;;;24.99;45.50
4392;BME280;2210;51.938;8.488;2023-07-16T15:38:27;100317.06;;;25.01;45.74
4392;BME280;2210;51.938;8.488;2023-07-16T15:42:28;100310.28;;;24.93;47.01
4392;BME280;2210;51.938;8.488;2023-07-16T15:46:28;100321.66;;;24.75;47.04
4392;BME280;2210;51.938;8.488;2023-07-16T15:50:28;100327.44;;;24.79;47.29
4392;BME280;2210;51.938;8.488;2023-07-16T15:54:29;100327.56;;;24.91;46.73
4392;BME280;2210;51.938;8.488;2023-07-16T15:58:29;100326.47;;;24.75;46.66
4392;BME280;2210;51.938;8.488;2023-07-16T16:02:30;100327.63;;;24.83;46.24
4392;BME280;2210;51.938;8.488;2023-07-16T16:06:31;100322.84;;;24.74;47.54
4392;BME280;2210;51.938;8.488;2023-07-16T16:10:37;100312.94;;;24.60;46.04
4392;BME280;2210;51.938;8.488;2023-07-16T16:14:37;100318.91;;;24.49;46.83
4392;BME280;2210;51.938;8.488;2023-07-16T16:18:41;100316.97;;;24.41;46.89
4392;BME280;2210;51.938;8.488;2023-07-16T16:22:44;100318.97;;;24.32;48.12
4392;BME280;2210;51.938;8.488;2023-07-16T16:26:44;100325.97;;;24.26;47.90
4392;BME280;2210;51.938;8.488;2023-07-16T16:30:44;100326.44;;;24.28;47.88
4392;BME280;2210;51.938;8.488;2023-07-16T16:34:44;100320.00;;;24.27;48.16
4392;BME280;2210;51.938;8.488;2023-07-16T16:38:45;100327.63;;;24.18;48.90
4392;BME280;2210;51.938;8.488;2023-07-16T16:42:45;100327.63;;;24.09;47.97
4392;BME280;2210;51.938;8.488;2023-07-16T16:46:46;100330.78;;;24.07;48.91
4392;BME280;2210;51.938;8.488;2023-07-16T16:50:47;100330.44;;;24.18;47.73
4392;BME280;2210;51.938;8.488;2023-07-16T16:54:48;100328.75;;;24.34;48.49
4392;BME280;2210;51.938;8.488;2023-07-16T16:58:49;100313.34;;;24.32;47.65
4392;BME280;2210;51.938;8.488;2023-07-16T17:02:49;100311.88;;;24.26;49.01
4392;BME280;2210;51.938;8.488;2023-07-16T17:06:49;100314.56;;;24.04;49.15
4392;BME280;2210;51.938;8.488;2023-07-16T17:10:49;100321.69;;;24.02;50.78
4392;BME280;2210;51.938;8.488;2023-07-16T17:14:50;100324.19;;;23.95;50.19
4392;BME280;2210;51.938;8.488;2023-07-16T17:18:50;100325.66;;;24.01;48.77
4392;BME280;2210;51.938;8.488;2023-07-16T17:22:58;100325.03;;;24.04;49.31
4392;BME280;2210;51.938;8.488;2023-07-16T17:26:58;100319.69;;;24.11;49.68
4392;BME280;2210;51.938;8.488;2023-07-16T17:30:58;100327.13;;;24.16;49.82
4392;BME280;2210;51.938;8.488;2023-07-16T17:35:02;100325.16;;;24.16;50.02
4392;BME280;2210;51.938;8.488;2023-07-16T17:39:03;100329.28;;;24.10;49.71
4392;BME280;2210;51.938;8.488;2023-07-16T17:43:06;100334.13;;;24.10;50.15
4392;BME280;2210;51.938;8.488;2023-07-16T17:47:07;100335.28;;;24.00;49.72
4392;BME280;2210;51.938;8.488;2023-07-16T17:51:07;100337.78;;;23.93;48.67
4392;BME280;2210;51.938;8.488;2023-07-16T17:55:09;100341.09;;;23.95;49.28
4392;BME280;2210;51.938;8.488;2023-07-16T17:59:10;100341.91;;;23.86;49.94
4392;BME280;2210;51.938;8.488;2023-07-16T18:03:10;100338.75;;;23.62;50.50
4392;BME280;2210;51.938;8.488;2023-07-16T18:07:10;100342.88;;;23.55;50.86
4392;BME280;2210;51.938;8.488;2023-07-16T18:11:11;100347.66;;;23.37;50.18
4392;BME280;2210;51.938;8.488;2023-07-16T18:15:11;100344.16;;;23.32;50.48
4392;BME280;2210;51.938;8.488;2023-07-16T18:19:11;100339.34;;;23.23;50.15
4392;BME280;2210;51.938;8.488;2023-07-16T18:23:12;100350.09;;;23.13;49.73
4392;BME280;2210;51.938;8.488;2023-07-16T18:27:15;100350.38;;;23.11;50.43
4392;BME280;2210;51.938;8.488;2023-07-16T18:31:16;100350.84;;;23.04;51.51
4392;BME280;2210;51.938;8.488;2023-07-16T18:35:16;100364.38;;;22.94;51.40
4392;BME280;2210;51.938;8.488;2023-07-16T18:39:20;100366.84;;;22.86;51.86
4392;BME280;2210;51.938;8.488;2023-07-16T18:43:26;100362.50;;;22.80;52.81
4392;BME280;2210;51.938;8.488;2023-07-16T18:47:29;100357.38;;;22.73;52.43
4392;BME280;2210;51.938;8.488;2023-07-16T18:51:29;100357.97;;;22.62;52.45
4392;BME280;2210;51.938;8.488;2023-07-16T18:55:33;100353.97;;;22.54;54.34
4392;BME280;2210;51.938;8.488;2023-07-16T18:59:33;100356.75;;;22.45;54.12
4392;BME280;2210;51.938;8.488;2023-07-16T19:03:37;100370.22;;;22.34;54.42
4392;BME280;2210;51.938;8.488;2023-07-16T19:07:37;100365.53;;;22.30;55.19
4392;BME280;2210;51.938;8.488;2023-07-16T19:11:49;100373.78;;;22.26;55.46
4392;BME280;2210;51.938;8.488;2023-07-16T19:15:50;100373.25;;;22.24;54.61
4392;BME280;2210;51.938;8.488;2023-07-16T19:19:51;100379.69;;;22.24;55.77
4392;BME280;2210;51.938;8.488;2023-07-16T19:23:51;100382.13;;;22.17;55.72
4392;BME280;2210;51.938;8.488;2023-07-16T19:27:51;100390.56;;;22.17;56.16
4392;BME280;2210;51.938;8.488;2023-07-16T19:31:51;100387.88;;;22.12;56.16
4392;BME280;2210;51.938;8.488;2023-07-16T19:35:59;100399.16;;;21.98;56.74
4392;BME280;2210;51.938;8.488;2023-07-16T19:40:00;100403.06;;;21.88;56.02
4392;BME280;2210;51.938;8.488;2023-07-16T19:44:06;100400.91;;;21.85;58.27
4392;BME280;2210;51.938;8.488;2023-07-16T19:48:13;100405.59;;;21.76;58.11
4392;BME280;2210;51.938;8.488;2023-07-16T19:52:16;100420.38;;;21.68;57.67
4392;BME280;2210;51.938;8.488;2023-07-16T19:56:17;100420.59;;;21.58;57.83
4392;BME280;2210;51.938;8.488;2023-07-16T20:00:17;100433.66;;;21.48;59.20
4392;BME280;2210;51.938;8.488;2023-07-16T20:04:17;100434.94;;;21.42;59.45
4392;BME280;2210;51.938;8.488;2023-07-16T20:08:18;100436.88;;;21.42;60.15
4392;BME280;2210;51.938;8.488;2023-07-16T20:12:18;100438.56;;;21.43;59.45
4392;BME280;2210;51.938;8.488;2023-07-16T20:16:18;100443.34;;;21.42;60.03
4392;BME280;2210;51.938;8.488;2023-07-16T20:20:18;100446.44;;;21.27;60.46
4392;BME280;2210;51.938;8.488;2023-07-16T20:24:22;100437.00;;;21.22;59.34
4392;BME280;2210;51.938;8.488;2023-07-16T20:28:25;100440.03;;;21.12;61.31
4392;BME280;2210;51.938;8.488;2023-07-16T20:32:26;100443.25;;;21.05;61.93
4392;BME280;2210;51.938;8.488;2023-07-16T20:36:26;100437.94;;;21.04;62.51
4392;BME280;2210;51.938;8.488;2023-07-16T20:40:26;100434.81;;;20.92;62.14
4392;BME280;2210;51.938;8.488;2023-07-16T20:44:30;100429.91;;;20.83;62.20
4392;BME280;2210;51.938;8.488;2023-07-16T20:48:30;100428.56;;;20.81;62.11
4392;BME280;2210;51.938;8.488;2023-07-16T20:52:31;100431.16;;;20.77;64.17
4392;BME280;2210;51.938;8.488;2023-07-16T20:56:31;100434.78;;;20.78;64.90
4392;BME280;2210;51.938;8.488;2023-07-16T21:00:37;100443.28;;;20.72;65.26
4392;BME280;2210;51.938;8.488;2023-07-16T21:04:38;100436.50;;;20.60;66.15
4392;BME280;2210;51.938;8.488;2023-07-16T21:08:41;100434.31;;;20.57;65.87
4392;BME280;2210;51.938;8.488;2023-07-16T21:12:44;100437.41;;;20.55;66.08
4392;BME280;2210;51.938;8.488;2023-07-16T21:16:45;100428.44;;;20.39;67.47
4392;BME280;2210;51.938;8.488;2023-07-16T21:20:48;100429.03;;;20.36;68.30
4392;BME280;2210;51.938;8.488;2023-07-16T21:24:48;100434.13;;;20.34;69.12
4392;BME280;2210;51.938;8.488;2023-07-16T21:28:49;100437.31;;;20.27;69.15
4392;BME280;2210;51.938;8.488;2023-07-16T21:32:50;100440.81;;;20.19;70.75
4392;BME280;2210;51.938;8.488;2023-07-16T21:36:53;100442.63;;;20.10;70.44
4392;BME280;2210;51.938;8.488;2023-07-16T21:40:59;100435.84;;;20.16;70.56
4392;BME280;2210;51.938;8.488;2023-07-16T21:45:00;100442.09;;;20.27;69.83
4392;BME280;2210;51.938;8.488;2023-07-16T21:49:06;100439.31;;;20.27;70.19